UAL1069 KIND-KORD
Flight info
| Callsign | UAL1069 |
|---|---|
| Flight time | N/A |
| Altitude | 22000 |
| Route | MEARZ7 MEARZ BRATN BONNT VEECK5 |
| Aircraft | A320/M-SDE3FGHIRWY/LB1 |
Departure
| Time | 2026-05-06 02:04 |
|---|---|
| Airport | Indianapolis International Airport (KIND) |
Arrival
| Time | N/A |
|---|---|
| Airport | Chicago O'Hare International Airport (KORD) |
| Time | Latitude | Longitude | Altitude | Speed | Heading |
|---|---|---|---|---|---|
| 2026-05-06 01:29 | 39.71635 | -86.29406 | 781 ft | 0 kts | 146° |
| 2026-05-06 01:54 | 39.71637 | -86.29408 | 781 ft | 3 kts | 146° |
| 2026-05-06 01:55 | 39.71658 | -86.29429 | 781 ft | 4 kts | 135° |
| 2026-05-06 01:55 | 39.71674 | -86.29456 | 781 ft | 4 kts | 107° |
| 2026-05-06 01:55 | 39.71674 | -86.29482 | 781 ft | 2 kts | 50° |
| 2026-05-06 01:55 | 39.71670 | -86.29487 | 781 ft | 0 kts | 49° |
| 2026-05-06 01:59 | 39.71675 | -86.29481 | 781 ft | 2 kts | 49° |
| 2026-05-06 01:59 | 39.71694 | -86.29449 | 781 ft | 8 kts | 53° |
| 2026-05-06 01:59 | 39.71726 | -86.29402 | 781 ft | 13 kts | 47° |
| 2026-05-06 01:59 | 39.71709 | -86.29242 | 781 ft | 21 kts | 139° |
| 2026-05-06 02:00 | 39.71579 | -86.29109 | 781 ft | 25 kts | 159° |
| 2026-05-06 02:00 | 39.71449 | -86.29221 | 781 ft | 25 kts | 234° |
| 2026-05-06 02:00 | 39.71373 | -86.29344 | 781 ft | 24 kts | 229° |
| 2026-05-06 02:00 | 39.71187 | -86.29388 | 782 ft | 23 kts | 175° |
| 2026-05-06 02:01 | 39.71083 | -86.29411 | 781 ft | 24 kts | 204° |
| 2026-05-06 02:01 | 39.70951 | -86.29558 | 781 ft | 28 kts | 224° |
| 2026-05-06 02:01 | 39.70809 | -86.29740 | 781 ft | 30 kts | 224° |
| 2026-05-06 02:01 | 39.70657 | -86.29935 | 781 ft | 31 kts | 224° |
| 2026-05-06 02:02 | 39.70497 | -86.30134 | 781 ft | 31 kts | 223° |
| 2026-05-06 02:02 | 39.70341 | -86.30334 | 781 ft | 32 kts | 225° |
| 2026-05-06 02:02 | 39.70228 | -86.30472 | 781 ft | 15 kts | 214° |
| 2026-05-06 02:02 | 39.70178 | -86.30467 | 781 ft | 7 kts | 152° |
| 2026-05-06 02:03 | 39.70128 | -86.30412 | 780 ft | 14 kts | 132° |
| 2026-05-06 02:03 | 39.70150 | -86.30273 | 780 ft | 22 kts | 47° |
| 2026-05-06 02:03 | 39.70387 | -86.29980 | 782 ft | 78 kts | 43° |
| 2026-05-06 02:03 | 39.70905 | -86.29325 | 780 ft | 129 kts | 45° |
| 2026-05-06 02:04 | 39.71650 | -86.28386 | 838 ft | 164 kts | 42° |
| 2026-05-06 02:04 | 39.72455 | -86.27283 | 1300 ft | 172 kts | 45° |
| 2026-05-06 02:04 | 39.73281 | -86.26186 | 2027 ft | 166 kts | 41° |
| 2026-05-06 02:04 | 39.74098 | -86.25185 | 2833 ft | 156 kts | 39° |
| 2026-05-06 02:05 | 39.75033 | -86.24451 | 3216 ft | 166 kts | 9° |
| 2026-05-06 02:05 | 39.76249 | -86.24583 | 3437 ft | 188 kts | 348° |
| 2026-05-06 02:05 | 39.77604 | -86.24968 | 3707 ft | 208 kts | 348° |
| 2026-05-06 02:05 | 39.79088 | -86.25389 | 4065 ft | 228 kts | 347° |
| 2026-05-06 02:06 | 39.80667 | -86.25832 | 4715 ft | 236 kts | 346° |
| 2026-05-06 02:06 | 39.82300 | -86.26287 | 5333 ft | 246 kts | 345° |
| 2026-05-06 02:06 | 39.84047 | -86.26775 | 5757 ft | 266 kts | 345° |
| 2026-05-06 02:06 | 39.85895 | -86.27288 | 6443 ft | 276 kts | 345° |
| 2026-05-06 02:07 | 39.87772 | -86.27806 | 7166 ft | 282 kts | 344° |
| 2026-05-06 02:07 | 39.89729 | -86.28347 | 7958 ft | 287 kts | 343° |
| 2026-05-06 02:07 | 39.91677 | -86.28884 | 8719 ft | 291 kts | 342° |
| 2026-05-06 02:07 | 39.93674 | -86.29435 | 9454 ft | 296 kts | 341° |
| 2026-05-06 02:08 | 39.95727 | -86.29929 | 10128 ft | 307 kts | 347° |
| 2026-05-06 02:08 | 39.97968 | -86.29868 | 10335 ft | 339 kts | 5° |